sensor_id;sensor_type;location;lat;lon;timestamp;P1;durP1;ratioP1;P2;durP2;ratioP2
55007;SDS011;40902;45.116;21.296;2023-11-21T00:00:30;12.77;;;8.23;;
55007;SDS011;40902;45.116;21.296;2023-11-21T00:02:56;12.20;;;8.15;;
55007;SDS011;40902;45.116;21.296;2023-11-21T00:05:22;11.93;;;8.30;;
55007;SDS011;40902;45.116;21.296;2023-11-21T00:07:48;11.57;;;7.88;;
55007;SDS011;40902;45.116;21.296;2023-11-21T00:10:14;9.45;;;6.88;;
55007;SDS011;40902;45.116;21.296;2023-11-21T00:12:41;11.52;;;7.93;;
55007;SDS011;40902;45.116;21.296;2023-11-21T00:15:07;11.15;;;7.65;;
55007;SDS011;40902;45.116;21.296;2023-11-21T00:17:37;13.35;;;7.78;;
55007;SDS011;40902;45.116;21.296;2023-11-21T00:20:03;11.00;;;7.43;;
55007;SDS011;40902;45.116;21.296;2023-11-21T00:22:31;11.85;;;8.13;;
55007;SDS011;40902;45.116;21.296;2023-11-21T00:25:01;12.15;;;8.32;;
55007;SDS011;40902;45.116;21.296;2023-11-21T00:27:29;11.13;;;7.45;;
55007;SDS011;40902;45.116;21.296;2023-11-21T00:29:55;12.68;;;8.07;;
55007;SDS011;40902;45.116;21.296;2023-11-21T00:32:20;12.90;;;8.35;;
55007;SDS011;40902;45.116;21.296;2023-11-21T00:34:46;12.20;;;8.23;;
55007;SDS011;40902;45.116;21.296;2023-11-21T00:37:12;13.00;;;7.68;;
55007;SDS011;40902;45.116;21.296;2023-11-21T00:39:37;11.88;;;7.90;;
55007;SDS011;40902;45.116;21.296;2023-11-21T00:42:03;13.60;;;7.88;;
55007;SDS011;40902;45.116;21.296;2023-11-21T00:44:30;10.55;;;7.55;;
55007;SDS011;40902;45.116;21.296;2023-11-21T00:46:55;12.70;;;8.48;;
55007;SDS011;40902;45.116;21.296;2023-11-21T00:49:21;11.40;;;7.32;;
55007;SDS011;40902;45.116;21.296;2023-11-21T00:51:47;12.13;;;7.82;;
55007;SDS011;40902;45.116;21.296;2023-11-21T00:54:13;11.77;;;8.00;;
55007;SDS011;40902;45.116;21.296;2023-11-21T00:56:38;10.65;;;6.93;;
55007;SDS011;40902;45.116;21.296;2023-11-21T00:59:05;10.98;;;6.65;;
55007;SDS011;40902;45.116;21.296;2023-11-21T01:01:32;10.65;;;6.65;;
55007;SDS011;40902;45.116;21.296;2023-11-21T01:03:57;11.45;;;7.15;;
55007;SDS011;40902;45.116;21.296;2023-11-21T01:06:23;12.80;;;7.22;;
55007;SDS011;40902;45.116;21.296;2023-11-21T01:08:49;10.77;;;6.63;;
55007;SDS011;40902;45.116;21.296;2023-11-21T01:11:15;10.77;;;7.03;;
55007;SDS011;40902;45.116;21.296;2023-11-21T01:13:40;11.43;;;7.25;;
55007;SDS011;40902;45.116;21.296;2023-11-21T01:16:07;10.98;;;6.95;;
55007;SDS011;40902;45.116;21.296;2023-11-21T01:18:34;10.35;;;6.20;;
55007;SDS011;40902;45.116;21.296;2023-11-21T01:21:00;9.32;;;6.53;;
55007;SDS011;40902;45.116;21.296;2023-11-21T01:23:26;9.90;;;6.50;;
55007;SDS011;40902;45.116;21.296;2023-11-21T01:25:52;9.93;;;6.22;;
55007;SDS011;40902;45.116;21.296;2023-11-21T01:28:18;9.43;;;5.70;;
55007;SDS011;40902;45.116;21.296;2023-11-21T01:30:44;9.45;;;5.97;;
55007;SDS011;40902;45.116;21.296;2023-11-21T01:33:11;9.20;;;6.28;;
55007;SDS011;40902;45.116;21.296;2023-11-21T01:35:37;8.27;;;5.28;;
55007;SDS011;40902;45.116;21.296;2023-11-21T01:38:02;9.63;;;6.10;;
55007;SDS011;40902;45.116;21.296;2023-11-21T01:40:29;9.07;;;5.40;;
55007;SDS011;40902;45.116;21.296;2023-11-21T01:42:55;8.32;;;5.60;;
55007;SDS011;40902;45.116;21.296;2023-11-21T01:45:21;8.75;;;5.65;;
55007;SDS011;40902;45.116;21.296;2023-11-21T01:47:47;8.20;;;5.35;;
55007;SDS011;40902;45.116;21.296;2023-11-21T01:50:14;10.00;;;5.63;;
55007;SDS011;40902;45.116;21.296;2023-11-21T01:52:42;7.80;;;5.53;;
55007;SDS011;40902;45.116;21.296;2023-11-21T01:55:11;8.98;;;6.05;;
55007;SDS011;40902;45.116;21.296;2023-11-21T01:57:43;7.95;;;5.07;;
55007;SDS011;40902;45.116;21.296;2023-11-21T02:00:09;9.30;;;5.50;;
55007;SDS011;40902;45.116;21.296;2023-11-21T02:05:19;7.75;;;5.15;;
55007;SDS011;40902;45.116;21.296;2023-11-21T02:07:46;7.20;;;5.00;;
55007;SDS011;40902;45.116;21.296;2023-11-21T02:10:13;7.50;;;4.80;;
55007;SDS011;40902;45.116;21.296;2023-11-21T02:12:40;6.88;;;4.88;;
55007;SDS011;40902;45.116;21.296;2023-11-21T02:15:07;9.27;;;4.85;;
55007;SDS011;40902;45.116;21.296;2023-11-21T02:17:40;8.48;;;5.13;;
55007;SDS011;40902;45.116;21.296;2023-11-21T02:20:10;8.40;;;5.07;;
55007;SDS011;40902;45.116;21.296;2023-11-21T02:22:40;9.02;;;5.30;;
55007;SDS011;40902;45.116;21.296;2023-11-21T02:25:07;7.65;;;5.03;;
55007;SDS011;40902;45.116;21.296;2023-11-21T02:27:33;10.07;;;4.80;;
55007;SDS011;40902;45.116;21.296;2023-11-21T02:29:59;7.28;;;4.90;;
55007;SDS011;40902;45.116;21.296;2023-11-21T02:32:26;7.10;;;4.65;;
55007;SDS011;40902;45.116;21.296;2023-11-21T02:34:52;9.07;;;5.50;;
55007;SDS011;40902;45.116;21.296;2023-11-21T02:37:21;7.78;;;4.88;;
55007;SDS011;40902;45.116;21.296;2023-11-21T02:39:46;8.13;;;5.05;;
55007;SDS011;40902;45.116;21.296;2023-11-21T02:42:12;9.15;;;5.07;;
55007;SDS011;40902;45.116;21.296;2023-11-21T02:44:38;7.38;;;5.05;;
55007;SDS011;40902;45.116;21.296;2023-11-21T02:47:04;9.40;;;5.25;;
55007;SDS011;40902;45.116;21.296;2023-11-21T02:49:30;8.55;;;5.13;;
55007;SDS011;40902;45.116;21.296;2023-11-21T02:51:55;7.75;;;4.97;;
55007;SDS011;40902;45.116;21.296;2023-11-21T02:54:21;7.38;;;4.57;;
55007;SDS011;40902;45.116;21.296;2023-11-21T02:56:47;6.78;;;4.80;;
55007;SDS011;40902;45.116;21.296;2023-11-21T02:59:14;9.23;;;5.63;;
55007;SDS011;40902;45.116;21.296;2023-11-21T03:01:41;11.70;;;6.47;;
55007;SDS011;40902;45.116;21.296;2023-11-21T03:04:07;13.32;;;6.90;;
55007;SDS011;40902;45.116;21.296;2023-11-21T03:06:32;12.55;;;6.85;;
55007;SDS011;40902;45.116;21.296;2023-11-21T03:08:58;12.10;;;7.07;;
55007;SDS011;40902;45.116;21.296;2023-11-21T03:11:24;12.18;;;6.85;;
55007;SDS011;40902;45.116;21.296;2023-11-21T03:13:50;9.60;;;6.00;;
55007;SDS011;40902;45.116;21.296;2023-11-21T03:16:16;7.90;;;5.57;;
55007;SDS011;40902;45.116;21.296;2023-11-21T03:18:41;10.05;;;6.18;;
55007;SDS011;40902;45.116;21.296;2023-11-21T03:21:07;10.25;;;5.18;;
55007;SDS011;40902;45.116;21.296;2023-11-21T03:23:34;7.40;;;5.25;;
55007;SDS011;40902;45.116;21.296;2023-11-21T03:26:00;8.25;;;4.82;;
55007;SDS011;40902;45.116;21.296;2023-11-21T03:28:27;7.47;;;4.88;;
55007;SDS011;40902;45.116;21.296;2023-11-21T03:30:53;7.75;;;5.05;;
55007;SDS011;40902;45.116;21.296;2023-11-21T03:33:19;8.75;;;5.53;;
55007;SDS011;40902;45.116;21.296;2023-11-21T03:35:45;9.45;;;5.38;;
55007;SDS011;40902;45.116;21.296;2023-11-21T03:38:11;8.50;;;5.65;;
55007;SDS011;40902;45.116;21.296;2023-11-21T03:40:37;9.23;;;6.70;;
55007;SDS011;40902;45.116;21.296;2023-11-21T03:43:04;11.93;;;6.88;;
55007;SDS011;40902;45.116;21.296;2023-11-21T03:45:31;10.60;;;6.13;;
55007;SDS011;40902;45.116;21.296;2023-11-21T03:47:57;9.15;;;5.68;;
55007;SDS011;40902;45.116;21.296;2023-11-21T03:50:22;9.38;;;6.15;;
55007;SDS011;40902;45.116;21.296;2023-11-21T03:52:48;10.65;;;5.95;;
55007;SDS011;40902;45.116;21.296;2023-11-21T03:55:14;10.13;;;5.90;;
55007;SDS011;40902;45.116;21.296;2023-11-21T03:57:40;9.05;;;5.82;;
55007;SDS011;40902;45.116;21.296;2023-11-21T04:00:07;7.15;;;5.18;;
55007;SDS011;40902;45.116;21.296;2023-11-21T04:02:34;8.02;;;5.22;;
55007;SDS011;40902;45.116;21.296;2023-11-21T04:05:00;8.38;;;5.55;;
55007;SDS011;40902;45.116;21.296;2023-11-21T04:07:26;7.60;;;4.78;;
55007;SDS011;40902;45.116;21.296;2023-11-21T04:09:52;7.70;;;4.82;;
55007;SDS011;40902;45.116;21.296;2023-11-21T04:12:18;6.90;;;4.75;;
55007;SDS011;40902;45.116;21.296;2023-11-21T04:14:44;8.55;;;5.35;;
55007;SDS011;40902;45.116;21.296;2023-11-21T04:17:10;10.43;;;5.65;;
55007;SDS011;40902;45.116;21.296;2023-11-21T04:19:36;8.00;;;5.32;;
55007;SDS011;40902;45.116;21.296;2023-11-21T04:22:01;8.15;;;5.55;;
55007;SDS011;40902;45.116;21.296;2023-11-21T04:24:27;7.05;;;5.15;;
55007;SDS011;40902;45.116;21.296;2023-11-21T04:26:53;8.60;;;5.70;;
55007;SDS011;40902;45.116;21.296;2023-11-21T04:29:19;7.88;;;5.15;;
55007;SDS011;40902;45.116;21.296;2023-11-21T04:31:44;9.20;;;5.30;;
55007;SDS011;40902;45.116;21.296;2023-11-21T04:34:11;7.55;;;5.03;;
55007;SDS011;40902;45.116;21.296;2023-11-21T04:36:37;8.57;;;5.78;;
55007;SDS011;40902;45.116;21.296;2023-11-21T04:39:04;7.88;;;4.93;;
55007;SDS011;40902;45.116;21.296;2023-11-21T04:41:31;8.20;;;5.22;;
55007;SDS011;40902;45.116;21.296;2023-11-21T04:43:57;8.50;;;5.18;;
55007;SDS011;40902;45.116;21.296;2023-11-21T04:46:23;9.48;;;4.88;;
55007;SDS011;40902;45.116;21.296;2023-11-21T04:48:49;9.13;;;5.00;;
55007;SDS011;40902;45.116;21.296;2023-11-21T04:51:15;7.05;;;5.22;;
55007;SDS011;40902;45.116;21.296;2023-11-21T04:53:40;8.70;;;4.60;;
55007;SDS011;40902;45.116;21.296;2023-11-21T04:56:06;6.95;;;4.95;;
55007;SDS011;40902;45.116;21.296;2023-11-21T04:58:32;8.57;;;5.03;;
55007;SDS011;40902;45.116;21.296;2023-11-21T05:00:58;8.23;;;4.53;;
55007;SDS011;40902;45.116;21.296;2023-11-21T05:03:24;6.68;;;4.28;;
55007;SDS011;40902;45.116;21.296;2023-11-21T05:05:49;7.90;;;4.47;;
55007;SDS011;40902;45.116;21.296;2023-11-21T05:08:15;7.53;;;4.10;;
55007;SDS011;40902;45.116;21.296;2023-11-21T05:10:41;7.05;;;4.35;;
55007;SDS011;40902;45.116;21.296;2023-11-21T05:13:06;8.35;;;4.30;;
55007;SDS011;40902;45.116;21.296;2023-11-21T05:15:35;6.90;;;4.05;;
55007;SDS011;40902;45.116;21.296;2023-11-21T05:18:01;6.30;;;4.28;;
55007;SDS011;40902;45.116;21.296;2023-11-21T05:20:27;6.68;;;4.85;;
55007;SDS011;40902;45.116;21.296;2023-11-21T05:22:53;7.20;;;4.43;;
55007;SDS011;40902;45.116;21.296;2023-11-21T05:25:19;12.48;;;4.82;;
55007;SDS011;40902;45.116;21.296;2023-11-21T05:27:45;7.43;;;4.38;;
55007;SDS011;40902;45.116;21.296;2023-11-21T05:30:11;9.88;;;5.70;;
55007;SDS011;40902;45.116;21.296;2023-11-21T05:32:39;9.05;;;5.63;;
55007;SDS011;40902;45.116;21.296;2023-11-21T05:35:07;9.13;;;5.53;;
55007;SDS011;40902;45.116;21.296;2023-11-21T05:37:43;9.07;;;5.32;;
55007;SDS011;40902;45.116;21.296;2023-11-21T05:40:09;9.38;;;5.05;;
55007;SDS011;40902;45.116;21.296;2023-11-21T05:42:35;8.88;;;5.95;;
55007;SDS011;40902;45.116;21.296;2023-11-21T05:45:03;8.35;;;5.47;;
55007;SDS011;40902;45.116;21.296;2023-11-21T05:47:39;10.38;;;5.90;;
55007;SDS011;40902;45.116;21.296;2023-11-21T05:50:07;9.63;;;5.50;;
55007;SDS011;40902;45.116;21.296;2023-11-21T05:52:40;9.30;;;5.32;;
55007;SDS011;40902;45.116;21.296;2023-11-21T05:55:07;8.63;;;5.53;;
55007;SDS011;40902;45.116;21.296;2023-11-21T05:57:34;11.38;;;5.93;;
55007;SDS011;40902;45.116;21.296;2023-11-21T06:00:06;8.68;;;5.15;;
55007;SDS011;40902;45.116;21.296;2023-11-21T06:02:37;9.93;;;4.97;;
55007;SDS011;40902;45.116;21.296;2023-11-21T06:05:04;9.65;;;5.07;;
55007;SDS011;40902;45.116;21.296;2023-11-21T06:07:30;7.85;;;5.40;;
55007;SDS011;40902;45.116;21.296;2023-11-21T06:09:56;9.48;;;4.82;;
55007;SDS011;40902;45.116;21.296;2023-11-21T06:12:22;7.90;;;4.53;;
55007;SDS011;40902;45.116;21.296;2023-11-21T06:14:47;6.68;;;4.13;;
55007;SDS011;40902;45.116;21.296;2023-11-21T06:17:13;6.80;;;4.18;;
55007;SDS011;40902;45.116;21.296;2023-11-21T06:19:39;6.45;;;4.15;;
55007;SDS011;40902;45.116;21.296;2023-11-21T06:22:05;6.78;;;4.25;;
55007;SDS011;40902;45.116;21.296;2023-11-21T06:24:31;7.45;;;4.50;;
55007;SDS011;40902;45.116;21.296;2023-11-21T06:26:57;8.23;;;4.63;;
55007;SDS011;40902;45.116;21.296;2023-11-21T06:29:23;9.70;;;5.18;;
55007;SDS011;40902;45.116;21.296;2023-11-21T06:31:49;9.68;;;5.72;;
55007;SDS011;40902;45.116;21.296;2023-11-21T06:34:15;8.43;;;4.60;;
55007;SDS011;40902;45.116;21.296;2023-11-21T06:36:40;9.18;;;5.10;;
55007;SDS011;40902;45.116;21.296;2023-11-21T06:39:06;7.47;;;5.13;;
55007;SDS011;40902;45.116;21.296;2023-11-21T06:41:33;6.97;;;4.22;;
55007;SDS011;40902;45.116;21.296;2023-11-21T06:43:59;7.30;;;4.53;;
55007;SDS011;40902;45.116;21.296;2023-11-21T06:46:25;7.53;;;4.38;;
55007;SDS011;40902;45.116;21.296;2023-11-21T06:48:51;7.00;;;5.30;;
55007;SDS011;40902;45.116;21.296;2023-11-21T06:51:17;9.23;;;4.68;;
55007;SDS011;40902;45.116;21.296;2023-11-21T06:53:43;7.35;;;4.50;;
55007;SDS011;40902;45.116;21.296;2023-11-21T06:56:18;5.95;;;4.05;;
55007;SDS011;40902;45.116;21.296;2023-11-21T06:58:44;9.88;;;4.88;;
55007;SDS011;40902;45.116;21.296;2023-11-21T07:01:11;8.27;;;4.75;;
55007;SDS011;40902;45.116;21.296;2023-11-21T07:03:38;6.65;;;4.43;;
55007;SDS011;40902;45.116;21.296;2023-11-21T07:06:04;6.70;;;4.68;;
55007;SDS011;40902;45.116;21.296;2023-11-21T07:08:30;7.28;;;4.63;;
55007;SDS011;40902;45.116;21.296;2023-11-21T07:10:56;6.88;;;4.30;;
55007;SDS011;40902;45.116;21.296;2023-11-21T07:13:22;8.65;;;4.55;;
55007;SDS011;40902;45.116;21.296;2023-11-21T07:15:48;7.13;;;4.22;;
55007;SDS011;40902;45.116;21.296;2023-11-21T07:18:14;7.40;;;4.65;;
55007;SDS011;40902;45.116;21.296;2023-11-21T07:20:40;8.52;;;4.57;;
55007;SDS011;40902;45.116;21.296;2023-11-21T07:23:05;7.07;;;4.53;;
55007;SDS011;40902;45.116;21.296;2023-11-21T07:25:32;8.50;;;5.03;;
55007;SDS011;40902;45.116;21.296;2023-11-21T07:27:58;7.45;;;4.57;;
55007;SDS011;40902;45.116;21.296;2023-11-21T07:30:25;9.05;;;5.10;;
55007;SDS011;40902;45.116;21.296;2023-11-21T07:32:52;7.30;;;5.32;;
55007;SDS011;40902;45.116;21.296;2023-11-21T07:35:17;10.77;;;5.00;;
55007;SDS011;40902;45.116;21.296;2023-11-21T07:37:43;6.10;;;4.07;;
55007;SDS011;40902;45.116;21.296;2023-11-21T07:40:09;9.05;;;4.78;;
55007;SDS011;40902;45.116;21.296;2023-11-21T07:42:36;7.60;;;4.15;;
55007;SDS011;40902;45.116;21.296;2023-11-21T07:45:03;10.55;;;5.78;;
55007;SDS011;40902;45.116;21.296;2023-11-21T07:47:29;7.88;;;5.38;;
55007;SDS011;40902;45.116;21.296;2023-11-21T07:49:55;7.78;;;4.70;;
55007;SDS011;40902;45.116;21.296;2023-11-21T07:52:21;7.35;;;5.35;;
55007;SDS011;40902;45.116;21.296;2023-11-21T07:54:48;13.43;;;12.05;;
55007;SDS011;40902;45.116;21.296;2023-11-21T07:57:13;9.82;;;5.50;;
55007;SDS011;40902;45.116;21.296;2023-11-21T07:59:40;6.30;;;4.10;;
55007;SDS011;40902;45.116;21.296;2023-11-21T08:02:06;8.50;;;4.00;;
55007;SDS011;40902;45.116;21.296;2023-11-21T08:04:32;6.85;;;3.58;;
55007;SDS011;40902;45.116;21.296;2023-11-21T08:06:59;8.38;;;4.65;;
55007;SDS011;40902;45.116;21.296;2023-11-21T08:09:25;12.20;;;8.38;;
55007;SDS011;40902;45.116;21.296;2023-11-21T08:11:51;18.77;;;12.55;;
55007;SDS011;40902;45.116;21.296;2023-11-21T08:14:18;8.80;;;6.53;;
55007;SDS011;40902;45.116;21.296;2023-11-21T08:16:44;9.13;;;6.68;;
55007;SDS011;40902;45.116;21.296;2023-11-21T08:19:10;8.10;;;6.13;;
55007;SDS011;40902;45.116;21.296;2023-11-21T08:21:36;11.20;;;8.02;;
55007;SDS011;40902;45.116;21.296;2023-11-21T08:24:05;9.50;;;6.53;;
55007;SDS011;40902;45.116;21.296;2023-11-21T08:26:35;9.23;;;5.32;;
55007;SDS011;40902;45.116;21.296;2023-11-21T08:29:04;11.98;;;8.13;;
55007;SDS011;40902;45.116;21.296;2023-11-21T08:31:32;9.93;;;6.57;;
55007;SDS011;40902;45.116;21.296;2023-11-21T08:33:57;19.38;;;11.85;;
55007;SDS011;40902;45.116;21.296;2023-11-21T08:36:23;24.30;;;13.80;;
55007;SDS011;40902;45.116;21.296;2023-11-21T08:38:49;33.25;;;17.92;;
55007;SDS011;40902;45.116;21.296;2023-11-21T08:41:17;17.90;;;11.15;;
55007;SDS011;40902;45.116;21.296;2023-11-21T08:43:47;10.48;;;7.50;;
55007;SDS011;40902;45.116;21.296;2023-11-21T08:46:13;10.20;;;7.35;;
55007;SDS011;40902;45.116;21.296;2023-11-21T08:48:40;7.72;;;5.55;;
55007;SDS011;40902;45.116;21.296;2023-11-21T08:51:06;9.10;;;5.25;;
55007;SDS011;40902;45.116;21.296;2023-11-21T08:53:34;7.55;;;4.97;;
55007;SDS011;40902;45.116;21.296;2023-11-21T08:56:00;12.45;;;6.35;;
55007;SDS011;40902;45.116;21.296;2023-11-21T08:58:26;9.10;;;5.90;;
55007;SDS011;40902;45.116;21.296;2023-11-21T09:00:52;8.52;;;5.63;;
55007;SDS011;40902;45.116;21.296;2023-11-21T09:03:18;5.82;;;4.40;;
55007;SDS011;40902;45.116;21.296;2023-11-21T09:05:44;7.22;;;4.55;;
55007;SDS011;40902;45.116;21.296;2023-11-21T09:08:09;6.47;;;4.18;;
55007;SDS011;40902;45.116;21.296;2023-11-21T09:10:35;7.80;;;4.30;;
55007;SDS011;40902;45.116;21.296;2023-11-21T09:13:01;7.28;;;4.13;;
55007;SDS011;40902;45.116;21.296;2023-11-21T09:15:27;8.00;;;3.88;;
55007;SDS011;40902;45.116;21.296;2023-11-21T09:17:53;6.82;;;3.85;;
55007;SDS011;40902;45.116;21.296;2023-11-21T09:20:19;6.07;;;4.18;;
55007;SDS011;40902;45.116;21.296;2023-11-21T09:22:48;6.03;;;3.63;;
55007;SDS011;40902;45.116;21.296;2023-11-21T09:25:14;8.35;;;4.90;;
55007;SDS011;40902;45.116;21.296;2023-11-21T09:27:40;6.75;;;4.25;;
55007;SDS011;40902;45.116;21.296;2023-11-21T09:30:06;7.90;;;4.38;;
55007;SDS011;40902;45.116;21.296;2023-11-21T09:32:36;7.22;;;4.18;;
55007;SDS011;40902;45.116;21.296;2023-11-21T09:35:04;6.20;;;4.00;;
55007;SDS011;40902;45.116;21.296;2023-11-21T09:37:30;7.65;;;3.88;;
55007;SDS011;40902;45.116;21.296;2023-11-21T09:39:56;6.75;;;4.25;;
55007;SDS011;40902;45.116;21.296;2023-11-21T09:42:26;8.55;;;4.45;;
55007;SDS011;40902;45.116;21.296;2023-11-21T09:47:43;7.53;;;3.95;;
55007;SDS011;40902;45.116;21.296;2023-11-21T09:50:09;4.03;;;3.00;;
55007;SDS011;40902;45.116;21.296;2023-11-21T09:55:35;5.25;;;3.10;;
55007;SDS011;40902;45.116;21.296;2023-11-21T09:58:03;5.80;;;3.58;;
55007;SDS011;40902;45.116;21.296;2023-11-21T10:00:32;10.35;;;5.10;;
55007;SDS011;40902;45.116;21.296;2023-11-21T10:02:59;7.85;;;4.80;;
55007;SDS011;40902;45.116;21.296;2023-11-21T10:05:25;6.00;;;4.28;;
55007;SDS011;40902;45.116;21.296;2023-11-21T10:07:51;6.80;;;3.53;;
55007;SDS011;40902;45.116;21.296;2023-11-21T10:10:19;5.90;;;4.05;;
55007;SDS011;40902;45.116;21.296;2023-11-21T10:12:48;7.60;;;4.22;;
55007;SDS011;40902;45.116;21.296;2023-11-21T10:15:18;6.45;;;3.80;;
55007;SDS011;40902;45.116;21.296;2023-11-21T10:17:46;8.35;;;4.75;;
55007;SDS011;40902;45.116;21.296;2023-11-21T10:20:14;5.20;;;3.50;;
55007;SDS011;40902;45.116;21.296;2023-11-21T10:22:41;6.00;;;4.20;;
55007;SDS011;40902;45.116;21.296;2023-11-21T10:25:08;5.72;;;4.53;;
55007;SDS011;40902;45.116;21.296;2023-11-21T10:27:35;11.70;;;6.53;;
55007;SDS011;40902;45.116;21.296;2023-11-21T10:30:04;10.45;;;7.85;;
55007;SDS011;40902;45.116;21.296;2023-11-21T10:32:30;5.03;;;3.17;;
55007;SDS011;40902;45.116;21.296;2023-11-21T10:34:59;4.80;;;2.70;;
55007;SDS011;40902;45.116;21.296;2023-11-21T10:37:34;4.53;;;2.80;;
55007;SDS011;40902;45.116;21.296;2023-11-21T10:40:01;7.90;;;5.13;;
55007;SDS011;40902;45.116;21.296;2023-11-21T10:42:27;7.47;;;5.20;;
55007;SDS011;40902;45.116;21.296;2023-11-21T10:44:53;9.38;;;5.65;;
55007;SDS011;40902;45.116;21.296;2023-11-21T10:47:19;8.45;;;5.30;;
55007;SDS011;40902;45.116;21.296;2023-11-21T10:49:51;11.05;;;6.38;;
55007;SDS011;40902;45.116;21.296;2023-11-21T10:52:21;12.73;;;8.02;;
55007;SDS011;40902;45.116;21.296;2023-11-21T10:54:47;8.55;;;5.88;;
55007;SDS011;40902;45.116;21.296;2023-11-21T10:57:15;9.77;;;6.13;;
55007;SDS011;40902;45.116;21.296;2023-11-21T10:59:45;10.77;;;7.68;;
55007;SDS011;40902;45.116;21.296;2023-11-21T11:04:53;6.80;;;3.63;;
55007;SDS011;40902;45.116;21.296;2023-11-21T11:07:25;6.82;;;3.38;;
55007;SDS011;40902;45.116;21.296;2023-11-21T11:09:53;6.68;;;4.07;;
55007;SDS011;40902;45.116;21.296;2023-11-21T11:12:20;5.95;;;4.00;;
55007;SDS011;40902;45.116;21.296;2023-11-21T11:14:46;6.80;;;4.68;;
55007;SDS011;40902;45.116;21.296;2023-11-21T11:17:13;8.15;;;4.78;;
55007;SDS011;40902;45.116;21.296;2023-11-21T11:19:39;9.32;;;5.15;;
55007;SDS011;40902;45.116;21.296;2023-11-21T11:24:59;7.38;;;3.30;;
55007;SDS011;40902;45.116;21.296;2023-11-21T11:27:38;8.40;;;4.38;;
55007;SDS011;40902;45.116;21.296;2023-11-21T11:36:04;6.78;;;3.92;;
55007;SDS011;40902;45.116;21.296;2023-11-21T11:38:33;10.55;;;5.38;;
55007;SDS011;40902;45.116;21.296;2023-11-21T11:41:04;5.15;;;3.40;;
55007;SDS011;40902;45.116;21.296;2023-11-21T11:43:31;6.93;;;3.53;;
55007;SDS011;40902;45.116;21.296;2023-11-21T11:46:09;6.10;;;3.45;;
55007;SDS011;40902;45.116;21.296;2023-11-21T11:48:38;7.57;;;4.35;;
55007;SDS011;40902;45.116;21.296;2023-11-21T11:51:05;7.82;;;4.03;;
55007;SDS011;40902;45.116;21.296;2023-11-21T11:53:38;7.95;;;4.60;;
55007;SDS011;40902;45.116;21.296;2023-11-21T11:59:04;7.22;;;3.40;;
55007;SDS011;40902;45.116;21.296;2023-11-21T12:01:32;4.88;;;3.53;;
55007;SDS011;40902;45.116;21.296;2023-11-21T12:06:39;8.38;;;3.10;;
55007;SDS011;40902;45.116;21.296;2023-11-21T12:09:07;5.97;;;3.25;;
55007;SDS011;40902;45.116;21.296;2023-11-21T12:11:40;7.45;;;4.90;;
55007;SDS011;40902;45.116;21.296;2023-11-21T12:14:09;11.38;;;8.50;;
55007;SDS011;40902;45.116;21.296;2023-11-21T12:16:35;9.50;;;5.63;;
55007;SDS011;40902;45.116;21.296;2023-11-21T12:19:00;9.77;;;5.80;;
55007;SDS011;40902;45.116;21.296;2023-11-21T12:21:26;9.88;;;6.03;;
55007;SDS011;40902;45.116;21.296;2023-11-21T12:23:53;8.70;;;5.32;;
55007;SDS011;40902;45.116;21.296;2023-11-21T12:26:23;10.07;;;5.70;;
55007;SDS011;40902;45.116;21.296;2023-11-21T12:28:52;9.55;;;5.72;;
55007;SDS011;40902;45.116;21.296;2023-11-21T12:31:21;8.98;;;5.45;;
55007;SDS011;40902;45.116;21.296;2023-11-21T12:33:48;7.70;;;5.53;;
55007;SDS011;40902;45.116;21.296;2023-11-21T12:36:15;9.05;;;6.55;;
55007;SDS011;40902;45.116;21.296;2023-11-21T12:38:41;12.55;;;6.90;;
55007;SDS011;40902;45.116;21.296;2023-11-21T12:41:07;11.27;;;6.20;;
55007;SDS011;40902;45.116;21.296;2023-11-21T12:43:36;8.85;;;5.38;;
55007;SDS011;40902;45.116;21.296;2023-11-21T12:46:07;9.50;;;5.32;;
55007;SDS011;40902;45.116;21.296;2023-11-21T12:48:39;9.25;;;5.53;;
55007;SDS011;40902;45.116;21.296;2023-11-21T12:51:09;13.70;;;7.30;;
55007;SDS011;40902;45.116;21.296;2023-11-21T12:53:37;16.20;;;10.15;;
55007;SDS011;40902;45.116;21.296;2023-11-21T12:56:09;12.63;;;9.07;;
55007;SDS011;40902;45.116;21.296;2023-11-21T12:58:37;10.07;;;7.93;;
55007;SDS011;40902;45.116;21.296;2023-11-21T13:01:07;14.55;;;10.65;;
55007;SDS011;40902;45.116;21.296;2023-11-21T13:03:40;12.07;;;9.30;;
55007;SDS011;40902;45.116;21.296;2023-11-21T13:06:07;13.65;;;7.95;;
55007;SDS011;40902;45.116;21.296;2023-11-21T13:08:33;10.20;;;6.90;;
55007;SDS011;40902;45.116;21.296;2023-11-21T13:11:00;10.20;;;7.00;;
55007;SDS011;40902;45.116;21.296;2023-11-21T13:13:27;13.38;;;8.82;;
55007;SDS011;40902;45.116;21.296;2023-11-21T13:15:54;13.57;;;9.43;;
55007;SDS011;40902;45.116;21.296;2023-11-21T13:18:22;11.80;;;8.55;;
55007;SDS011;40902;45.116;21.296;2023-11-21T13:20:57;12.65;;;8.40;;
55007;SDS011;40902;45.116;21.296;2023-11-21T13:23:24;10.93;;;7.50;;
55007;SDS011;40902;45.116;21.296;2023-11-21T13:25:50;11.75;;;7.80;;
55007;SDS011;40902;45.116;21.296;2023-11-21T13:28:17;14.75;;;10.98;;
55007;SDS011;40902;45.116;21.296;2023-11-21T13:30:46;17.90;;;14.73;;
55007;SDS011;40902;45.116;21.296;2023-11-21T13:33:13;15.00;;;8.73;;
55007;SDS011;40902;45.116;21.296;2023-11-21T13:35:46;13.27;;;10.35;;
55007;SDS011;40902;45.116;21.296;2023-11-21T13:38:14;13.68;;;9.98;;
55007;SDS011;40902;45.116;21.296;2023-11-21T13:40:51;17.98;;;11.02;;
55007;SDS011;40902;45.116;21.296;2023-11-21T13:43:23;10.23;;;7.75;;
55007;SDS011;40902;45.116;21.296;2023-11-21T13:45:51;13.50;;;9.93;;
55007;SDS011;40902;45.116;21.296;2023-11-21T13:48:25;11.93;;;9.13;;
55007;SDS011;40902;45.116;21.296;2023-11-21T13:50:57;16.50;;;12.07;;
55007;SDS011;40902;45.116;21.296;2023-11-21T13:53:26;14.55;;;12.48;;
55007;SDS011;40902;45.116;21.296;2023-11-21T13:55:52;22.63;;;17.15;;
55007;SDS011;40902;45.116;21.296;2023-11-21T13:58:20;34.05;;;25.00;;
55007;SDS011;40902;45.116;21.296;2023-11-21T14:01:00;27.23;;;20.48;;
55007;SDS011;40902;45.116;21.296;2023-11-21T14:03:31;34.08;;;23.20;;
55007;SDS011;40902;45.116;21.296;2023-11-21T14:06:09;34.17;;;25.50;;
55007;SDS011;40902;45.116;21.296;2023-11-21T14:08:40;24.33;;;17.05;;
55007;SDS011;40902;45.116;21.296;2023-11-21T14:11:07;22.98;;;15.57;;
55007;SDS011;40902;45.116;21.296;2023-11-21T14:13:32;17.90;;;13.88;;
55007;SDS011;40902;45.116;21.296;2023-11-21T14:15:58;19.45;;;14.25;;
55007;SDS011;40902;45.116;21.296;2023-11-21T14:18:26;29.95;;;24.50;;
55007;SDS011;40902;45.116;21.296;2023-11-21T14:21:01;31.95;;;26.85;;
55007;SDS011;40902;45.116;21.296;2023-11-21T14:23:27;28.35;;;24.35;;
55007;SDS011;40902;45.116;21.296;2023-11-21T14:25:53;40.53;;;33.67;;
55007;SDS011;40902;45.116;21.296;2023-11-21T14:28:19;56.45;;;46.92;;
55007;SDS011;40902;45.116;21.296;2023-11-21T14:30:46;44.30;;;33.17;;
55007;SDS011;40902;45.116;21.296;2023-11-21T14:33:12;46.53;;;35.28;;
55007;SDS011;40902;45.116;21.296;2023-11-21T14:35:38;32.88;;;22.88;;
55007;SDS011;40902;45.116;21.296;2023-11-21T14:38:04;23.98;;;17.58;;
55007;SDS011;40902;45.116;21.296;2023-11-21T14:40:33;29.42;;;23.58;;
55007;SDS011;40902;45.116;21.296;2023-11-21T14:43:01;26.50;;;21.17;;
55007;SDS011;40902;45.116;21.296;2023-11-21T14:45:31;116.18;;;101.60;;
55007;SDS011;40902;45.116;21.296;2023-11-21T14:48:00;32.58;;;27.27;;
55007;SDS011;40902;45.116;21.296;2023-11-21T14:50:40;37.85;;;28.38;;
55007;SDS011;40902;45.116;21.296;2023-11-21T14:53:28;68.72;;;56.85;;